sensor_id;sensor_type;location;lat;lon;timestamp;pressure;altitude;pressure_sealevel;temperature;humidity
70053;BME280;57398;52.032;4.376;2023-08-24T00:00:01;102389.38;;;16.19;nan
70053;BME280;57398;52.032;4.376;2023-08-24T00:02:51;102377.91;;;16.20;nan
70053;BME280;57398;52.032;4.376;2023-08-24T00:05:40;102390.13;;;16.26;nan
70053;BME280;57398;52.032;4.376;2023-08-24T00:11:17;102395.66;;;16.36;nan
70053;BME280;57398;52.032;4.376;2023-08-24T00:14:06;102388.97;;;16.40;nan
70053;BME280;57398;52.032;4.376;2023-08-24T00:16:55;102385.31;;;16.41;nan
70053;BME280;57398;52.032;4.376;2023-08-24T00:19:43;102389.97;;;16.39;nan
70053;BME280;57398;52.032;4.376;2023-08-24T00:22:33;102387.50;;;16.44;nan
70053;BME280;57398;52.032;4.376;2023-08-24T00:25:21;102383.28;;;16.43;nan
70053;BME280;57398;52.032;4.376;2023-08-24T00:28:10;102392.16;;;16.42;nan
70053;BME280;57398;52.032;4.376;2023-08-24T00:30:59;102393.84;;;16.37;nan
70053;BME280;57398;52.032;4.376;2023-08-24T00:33:48;102387.94;;;16.41;nan
70053;BME280;57398;52.032;4.376;2023-08-24T00:36:37;102376.78;;;16.46;nan
70053;BME280;57398;52.032;4.376;2023-08-24T00:39:25;102373.38;;;16.45;nan
70053;BME280;57398;52.032;4.376;2023-08-24T00:42:14;102378.81;;;16.44;nan
70053;BME280;57398;52.032;4.376;2023-08-24T00:45:02;102393.31;;;16.46;nan
70053;BME280;57398;52.032;4.376;2023-08-24T00:47:52;102385.44;;;16.46;nan
70053;BME280;57398;52.032;4.376;2023-08-24T00:50:41;102403.75;;;16.53;nan
70053;BME280;57398;52.032;4.376;2023-08-24T00:53:30;102409.56;;;16.55;nan
70053;BME280;57398;52.032;4.376;2023-08-24T00:56:19;102404.69;;;16.59;nan
70053;BME280;57398;52.032;4.376;2023-08-24T00:59:11;102405.84;;;16.63;nan
70053;BME280;57398;52.032;4.376;2023-08-24T01:02:00;102401.63;;;16.62;nan
70053;BME280;57398;52.032;4.376;2023-08-24T01:04:50;102399.59;;;16.64;nan
70053;BME280;57398;52.032;4.376;2023-08-24T01:10:30;102369.09;;;16.63;nan
70053;BME280;57398;52.032;4.376;2023-08-24T01:13:23;102359.56;;;16.68;nan
70053;BME280;57398;52.032;4.376;2023-08-24T01:16:19;102364.03;;;16.68;nan
70053;BME280;57398;52.032;4.376;2023-08-24T01:19:16;102371.19;;;16.61;nan
70053;BME280;57398;52.032;4.376;2023-08-24T01:22:25;102380.59;;;16.50;nan
70053;BME280;57398;52.032;4.376;2023-08-24T01:25:31;102379.41;;;16.46;nan
70053;BME280;57398;52.032;4.376;2023-08-24T01:28:22;102358.97;;;16.36;nan
70053;BME280;57398;52.032;4.376;2023-08-24T01:34:01;102321.53;;;16.29;nan
70053;BME280;57398;52.032;4.376;2023-08-24T01:36:49;102293.47;;;16.29;nan
70053;BME280;57398;52.032;4.376;2023-08-24T01:39:42;102280.00;;;16.26;nan
70053;BME280;57398;52.032;4.376;2023-08-24T01:42:33;102245.78;;;16.21;nan
70053;BME280;57398;52.032;4.376;2023-08-24T01:48:17;102193.09;;;16.10;nan
70053;BME280;57398;52.032;4.376;2023-08-24T01:51:06;102192.72;;;16.07;nan
70053;BME280;57398;52.032;4.376;2023-08-24T01:53:57;102174.00;;;16.03;nan
70053;BME280;57398;52.032;4.376;2023-08-24T01:56:45;102221.63;;;16.00;nan
70053;BME280;57398;52.032;4.376;2023-08-24T01:59:34;102153.94;;;15.97;nan
70053;BME280;57398;52.032;4.376;2023-08-24T02:02:23;102131.34;;;15.96;nan
70053;BME280;57398;52.032;4.376;2023-08-24T02:05:12;102110.38;;;15.96;nan
70053;BME280;57398;52.032;4.376;2023-08-24T02:08:00;102092.28;;;15.95;nan
70053;BME280;57398;52.032;4.376;2023-08-24T02:10:48;102095.13;;;15.93;nan
70053;BME280;57398;52.032;4.376;2023-08-24T02:13:36;102096.94;;;15.93;nan
70053;BME280;57398;52.032;4.376;2023-08-24T02:16:24;102085.09;;;15.90;nan
70053;BME280;57398;52.032;4.376;2023-08-24T02:19:14;102085.09;;;15.90;nan
70053;BME280;57398;52.032;4.376;2023-08-24T02:22:02;102076.41;;;15.89;nan
70053;BME280;57398;52.032;4.376;2023-08-24T02:24:51;102102.97;;;15.93;nan
70053;BME280;57398;52.032;4.376;2023-08-24T02:30:27;102118.22;;;15.84;nan
70053;BME280;57398;52.032;4.376;2023-08-24T02:33:15;102123.25;;;15.86;nan
70053;BME280;57398;52.032;4.376;2023-08-24T02:36:05;102121.41;;;15.86;nan
70053;BME280;57398;52.032;4.376;2023-08-24T02:38:53;102125.66;;;15.87;nan
70053;BME280;57398;52.032;4.376;2023-08-24T02:41:42;102136.47;;;15.91;nan
70053;BME280;57398;52.032;4.376;2023-08-24T02:44:30;102129.19;;;15.93;nan
70053;BME280;57398;52.032;4.376;2023-08-24T02:47:18;102122.38;;;15.92;nan
70053;BME280;57398;52.032;4.376;2023-08-24T02:50:07;102130.22;;;15.92;nan
70053;BME280;57398;52.032;4.376;2023-08-24T02:52:56;102128.03;;;15.89;nan
70053;BME280;57398;52.032;4.376;2023-08-24T02:55:45;102122.22;;;15.87;nan
70053;BME280;57398;52.032;4.376;2023-08-24T02:58:33;102124.81;;;15.87;nan
70053;BME280;57398;52.032;4.376;2023-08-24T03:01:21;102120.03;;;15.84;nan
70053;BME280;57398;52.032;4.376;2023-08-24T03:04:10;102136.22;;;15.81;nan
70053;BME280;57398;52.032;4.376;2023-08-24T03:06:58;102153.84;;;15.74;nan
70053;BME280;57398;52.032;4.376;2023-08-24T03:09:48;102133.94;;;15.66;nan
70053;BME280;57398;52.032;4.376;2023-08-24T03:12:36;102135.63;;;15.60;nan
70053;BME280;57398;52.032;4.376;2023-08-24T03:15:24;102128.56;;;15.61;nan
70053;BME280;57398;52.032;4.376;2023-08-24T03:18:16;102121.72;;;15.60;nan
70053;BME280;57398;52.032;4.376;2023-08-24T03:23:52;102122.16;;;15.57;nan
70053;BME280;57398;52.032;4.376;2023-08-24T03:26:41;102126.59;;;15.56;nan
70053;BME280;57398;52.032;4.376;2023-08-24T03:29:29;102107.97;;;15.46;nan
70053;BME280;57398;52.032;4.376;2023-08-24T03:32:18;102125.22;;;15.54;nan
70053;BME280;57398;52.032;4.376;2023-08-24T07:56:27;102111.41;;;20.60;nan
70053;BME280;57398;52.032;4.376;2023-08-24T08:16:06;102088.69;;;21.11;nan
70053;BME280;57398;52.032;4.376;2023-08-24T11:09:09;102035.97;;;22.14;nan
70053;BME280;57398;52.032;4.376;2023-08-24T11:12:02;102017.94;;;22.36;nan
70053;BME280;57398;52.032;4.376;2023-08-24T11:14:52;102003.91;;;22.31;nan
70053;BME280;57398;52.032;4.376;2023-08-24T11:17:45;102009.47;;;22.40;nan
70053;BME280;57398;52.032;4.376;2023-08-24T11:23:24;101977.75;;;22.24;nan
70053;BME280;57398;52.032;4.376;2023-08-24T11:26:13;102002.06;;;22.26;nan
70053;BME280;57398;52.032;4.376;2023-08-24T11:29:04;101991.25;;;22.23;nan
70053;BME280;57398;52.032;4.376;2023-08-24T11:34:41;101988.59;;;22.28;nan
70053;BME280;57398;52.032;4.376;2023-08-24T11:37:29;101965.25;;;22.35;nan
70053;BME280;57398;52.032;4.376;2023-08-24T11:40:18;101929.47;;;22.48;nan
70053;BME280;57398;52.032;4.376;2023-08-24T11:45:55;101928.97;;;22.46;nan
70053;BME280;57398;52.032;4.376;2023-08-24T11:51:32;101952.25;;;22.49;nan
70053;BME280;57398;52.032;4.376;2023-08-24T11:54:32;101931.34;;;22.47;nan
70053;BME280;57398;52.032;4.376;2023-08-24T11:57:22;101920.94;;;22.61;nan
70053;BME280;57398;52.032;4.376;2023-08-24T12:00:12;101915.63;;;22.66;nan
70053;BME280;57398;52.032;4.376;2023-08-24T12:03:03;101894.91;;;22.73;nan
70053;BME280;57398;52.032;4.376;2023-08-24T12:05:52;101899.56;;;22.92;nan
70053;BME280;57398;52.032;4.376;2023-08-24T12:11:29;101892.88;;;23.39;nan
70053;BME280;57398;52.032;4.376;2023-08-24T12:14:24;101889.41;;;23.38;nan
70053;BME280;57398;52.032;4.376;2023-08-24T12:20:01;101864.88;;;24.05;nan
70053;BME280;57398;52.032;4.376;2023-08-24T12:22:54;101875.66;;;24.14;nan
70053;BME280;57398;52.032;4.376;2023-08-24T12:28:31;101888.84;;;23.76;nan
70053;BME280;57398;52.032;4.376;2023-08-24T12:31:26;101882.50;;;23.96;nan
70053;BME280;57398;52.032;4.376;2023-08-24T12:34:15;101877.16;;;24.01;nan
70053;BME280;57398;52.032;4.376;2023-08-24T12:37:03;101878.78;;;24.40;nan
70053;BME280;57398;52.032;4.376;2023-08-24T12:39:54;101885.47;;;24.13;nan
70053;BME280;57398;52.032;4.376;2023-08-24T12:45:31;101865.00;;;24.38;nan
70053;BME280;57398;52.032;4.376;2023-08-24T12:48:21;101877.00;;;24.54;nan
70053;BME280;57398;52.032;4.376;2023-08-24T12:51:09;101889.66;;;25.14;nan
70053;BME280;57398;52.032;4.376;2023-08-24T12:53:57;101898.34;;;25.66;nan
70053;BME280;57398;52.032;4.376;2023-08-24T12:56:45;101899.53;;;25.74;nan
70053;BME280;57398;52.032;4.376;2023-08-24T12:59:34;101906.41;;;25.47;nan
70053;BME280;57398;52.032;4.376;2023-08-24T13:02:22;101875.66;;;25.41;nan
70053;BME280;57398;52.032;4.376;2023-08-24T13:05:20;101885.41;;;25.32;nan
70053;BME280;57398;52.032;4.376;2023-08-24T13:08:09;101879.00;;;25.14;nan
70053;BME280;57398;52.032;4.376;2023-08-24T13:10:57;101892.31;;;25.47;nan
70053;BME280;57398;52.032;4.376;2023-08-24T13:13:45;101892.78;;;25.35;nan
70053;BME280;57398;52.032;4.376;2023-08-24T13:16:34;101891.72;;;25.36;nan
70053;BME280;57398;52.032;4.376;2023-08-24T13:19:22;101883.91;;;25.26;nan
70053;BME280;57398;52.032;4.376;2023-08-24T13:22:11;101884.09;;;24.78;nan
70053;BME280;57398;52.032;4.376;2023-08-24T13:27:48;101876.63;;;25.32;nan
70053;BME280;57398;52.032;4.376;2023-08-24T13:30:36;101873.41;;;25.62;nan
70053;BME280;57398;52.032;4.376;2023-08-24T13:33:24;101852.31;;;25.80;nan
70053;BME280;57398;52.032;4.376;2023-08-24T13:36:13;101835.97;;;26.00;nan
70053;BME280;57398;52.032;4.376;2023-08-24T13:39:02;101827.25;;;26.08;nan
70053;BME280;57398;52.032;4.376;2023-08-24T13:41:51;101825.88;;;26.11;nan
70053;BME280;57398;52.032;4.376;2023-08-24T13:44:39;101833.06;;;26.10;nan
70053;BME280;57398;52.032;4.376;2023-08-24T13:47:27;101832.22;;;26.01;nan
70053;BME280;57398;52.032;4.376;2023-08-24T13:50:16;101830.22;;;26.21;nan
70053;BME280;57398;52.032;4.376;2023-08-24T13:53:04;101812.50;;;26.25;nan
70053;BME280;57398;52.032;4.376;2023-08-24T13:55:54;101805.25;;;26.17;nan
70053;BME280;57398;52.032;4.376;2023-08-24T14:01:30;101845.72;;;26.05;nan
70053;BME280;57398;52.032;4.376;2023-08-24T14:04:20;101811.31;;;25.95;nan
70053;BME280;57398;52.032;4.376;2023-08-24T14:07:08;101895.09;;;25.83;nan
70053;BME280;57398;52.032;4.376;2023-08-24T14:12:53;102145.03;;;25.66;nan
70053;BME280;57398;52.032;4.376;2023-08-24T14:15:41;102408.41;;;25.47;nan
70053;BME280;57398;52.032;4.376;2023-08-24T14:18:30;102457.94;;;25.43;nan
70053;BME280;57398;52.032;4.376;2023-08-24T14:21:18;102462.06;;;25.59;nan
70053;BME280;57398;52.032;4.376;2023-08-24T14:24:13;102396.16;;;25.75;nan
70053;BME280;57398;52.032;4.376;2023-08-24T14:27:01;102291.16;;;26.24;nan
70053;BME280;57398;52.032;4.376;2023-08-24T14:29:51;102185.25;;;26.02;nan
70053;BME280;57398;52.032;4.376;2023-08-24T14:32:39;102069.03;;;26.25;nan
70053;BME280;57398;52.032;4.376;2023-08-24T14:38:17;101790.75;;;26.45;nan
70053;BME280;57398;52.032;4.376;2023-08-24T14:41:05;101728.97;;;26.66;nan
70053;BME280;57398;52.032;4.376;2023-08-24T14:43:54;101499.97;;;26.87;nan
70053;BME280;57398;52.032;4.376;2023-08-24T14:46:43;101422.66;;;26.87;nan
70053;BME280;57398;52.032;4.376;2023-08-24T14:49:32;101379.88;;;26.92;nan
70053;BME280;57398;52.032;4.376;2023-08-24T14:52:20;101348.03;;;26.87;nan
70053;BME280;57398;52.032;4.376;2023-08-24T14:57:57;101428.00;;;26.61;nan
70053;BME280;57398;52.032;4.376;2023-08-24T15:00:46;101523.50;;;26.36;nan
70053;BME280;57398;52.032;4.376;2023-08-24T15:03:37;101532.91;;;26.33;nan
70053;BME280;57398;52.032;4.376;2023-08-24T15:06:25;101461.09;;;26.11;nan
70053;BME280;57398;52.032;4.376;2023-08-24T15:09:13;101408.31;;;26.13;nan
70053;BME280;57398;52.032;4.376;2023-08-24T15:14:57;101326.41;;;26.19;nan
70053;BME280;57398;52.032;4.376;2023-08-24T15:17:45;101293.66;;;26.36;nan
70053;BME280;57398;52.032;4.376;2023-08-24T15:20:37;101239.94;;;26.42;nan
70053;BME280;57398;52.032;4.376;2023-08-24T15:23:27;101264.38;;;26.44;nan
70053;BME280;57398;52.032;4.376;2023-08-24T15:26:16;101188.84;;;26.31;nan
70053;BME280;57398;52.032;4.376;2023-08-24T15:29:09;101194.66;;;26.33;nan
70053;BME280;57398;52.032;4.376;2023-08-24T15:37:37;101108.66;;;26.33;nan
70053;BME280;57398;52.032;4.376;2023-08-24T15:40:29;101100.88;;;26.19;nan
70053;BME280;57398;52.032;4.376;2023-08-24T15:43:18;101099.47;;;26.13;nan
70053;BME280;57398;52.032;4.376;2023-08-24T15:46:06;101021.84;;;25.94;nan
70053;BME280;57398;52.032;4.376;2023-08-24T15:48:56;101052.56;;;25.91;nan
70053;BME280;57398;52.032;4.376;2023-08-24T15:51:45;101101.69;;;25.67;nan
70053;BME280;57398;52.032;4.376;2023-08-24T15:54:35;101105.63;;;25.53;nan
70053;BME280;57398;52.032;4.376;2023-08-24T15:57:23;101109.22;;;25.48;nan
70053;BME280;57398;52.032;4.376;2023-08-24T16:00:13;101146.75;;;25.29;nan
70053;BME280;57398;52.032;4.376;2023-08-24T16:03:02;101199.19;;;25.15;nan
70053;BME280;57398;52.032;4.376;2023-08-24T16:05:50;101259.38;;;25.02;nan
70053;BME280;57398;52.032;4.376;2023-08-24T16:11:28;101230.75;;;25.07;nan
70053;BME280;57398;52.032;4.376;2023-08-24T16:14:16;101228.09;;;25.07;nan
70053;BME280;57398;52.032;4.376;2023-08-24T16:17:04;101244.09;;;25.16;nan
70053;BME280;57398;52.032;4.376;2023-08-24T16:19:52;101276.00;;;25.16;nan
70053;BME280;57398;52.032;4.376;2023-08-24T16:22:40;101255.25;;;25.18;nan
70053;BME280;57398;52.032;4.376;2023-08-24T16:25:29;101191.81;;;25.43;nan
70053;BME280;57398;52.032;4.376;2023-08-24T16:28:20;101148.13;;;25.26;nan
70053;BME280;57398;52.032;4.376;2023-08-24T16:31:08;101165.09;;;25.08;nan
70053;BME280;57398;52.032;4.376;2023-08-24T16:33:56;101177.56;;;24.90;nan
70053;BME280;57398;52.032;4.376;2023-08-24T16:36:44;101231.03;;;24.66;nan
70053;BME280;57398;52.032;4.376;2023-08-24T16:39:33;101318.06;;;24.46;nan
70053;BME280;57398;52.032;4.376;2023-08-24T16:42:21;101357.03;;;24.37;nan
70053;BME280;57398;52.032;4.376;2023-08-24T16:45:11;101520.06;;;24.22;nan
70053;BME280;57398;52.032;4.376;2023-08-24T16:47:59;101582.84;;;23.99;nan
70053;BME280;57398;52.032;4.376;2023-08-24T16:50:49;101661.31;;;23.87;nan
70053;BME280;57398;52.032;4.376;2023-08-24T16:53:38;101941.16;;;23.65;nan
70053;BME280;57398;52.032;4.376;2023-08-24T16:56:26;102215.47;;;23.64;nan
70053;BME280;57398;52.032;4.376;2023-08-24T16:59:14;102295.91;;;23.44;nan
70053;BME280;57398;52.032;4.376;2023-08-24T17:02:04;102321.09;;;23.31;nan
70053;BME280;57398;52.032;4.376;2023-08-24T17:04:52;102219.06;;;23.24;nan
70053;BME280;57398;52.032;4.376;2023-08-24T17:07:40;102103.84;;;23.00;nan
70053;BME280;57398;52.032;4.376;2023-08-24T17:13:18;101938.19;;;22.53;nan
70053;BME280;57398;52.032;4.376;2023-08-24T17:16:06;101808.28;;;22.34;nan
70053;BME280;57398;52.032;4.376;2023-08-24T17:18:56;101750.03;;;22.40;nan
70053;BME280;57398;52.032;4.376;2023-08-24T17:21:50;101712.53;;;22.27;nan
70053;BME280;57398;52.032;4.376;2023-08-24T17:27:26;101678.81;;;21.99;nan
70053;BME280;57398;52.032;4.376;2023-08-24T17:30:14;101664.06;;;21.92;nan
70053;BME280;57398;52.032;4.376;2023-08-24T17:33:03;101641.09;;;21.83;nan
70053;BME280;57398;52.032;4.376;2023-08-24T17:38:48;101655.66;;;21.80;nan
70053;BME280;57398;52.032;4.376;2023-08-24T17:44:39;101575.00;;;21.78;nan
70053;BME280;57398;52.032;4.376;2023-08-24T17:47:27;101575.84;;;21.73;nan
70053;BME280;57398;52.032;4.376;2023-08-24T17:50:16;101582.47;;;21.70;nan
70053;BME280;57398;52.032;4.376;2023-08-24T17:53:05;101588.31;;;21.67;nan
70053;BME280;57398;52.032;4.376;2023-08-24T17:55:54;101581.69;;;21.70;nan
70053;BME280;57398;52.032;4.376;2023-08-24T18:01:30;101574.78;;;21.69;nan
70053;BME280;57398;52.032;4.376;2023-08-24T18:04:19;101553.16;;;21.62;nan
70053;BME280;57398;52.032;4.376;2023-08-24T18:07:07;101564.81;;;21.61;nan
70053;BME280;57398;52.032;4.376;2023-08-24T18:09:56;101558.94;;;21.69;nan
70053;BME280;57398;52.032;4.376;2023-08-24T18:12:44;101564.56;;;21.57;nan
70053;BME280;57398;52.032;4.376;2023-08-24T18:15:33;101568.84;;;21.48;nan
70053;BME280;57398;52.032;4.376;2023-08-24T18:18:22;101553.25;;;21.51;nan
70053;BME280;57398;52.032;4.376;2023-08-24T18:21:10;101549.81;;;21.46;nan
70053;BME280;57398;52.032;4.376;2023-08-24T18:23:59;101555.41;;;21.44;nan
70053;BME280;57398;52.032;4.376;2023-08-24T18:26:49;101557.50;;;21.37;nan
70053;BME280;57398;52.032;4.376;2023-08-24T18:29:37;101565.19;;;21.39;nan
70053;BME280;57398;52.032;4.376;2023-08-24T18:32:25;101565.72;;;21.36;nan
70053;BME280;57398;52.032;4.376;2023-08-24T18:35:13;101548.56;;;21.33;nan
70053;BME280;57398;52.032;4.376;2023-08-24T18:38:02;101558.88;;;21.29;nan
70053;BME280;57398;52.032;4.376;2023-08-24T18:40:51;101558.13;;;21.24;nan
70053;BME280;57398;52.032;4.376;2023-08-24T18:43:42;101569.22;;;21.21;nan
70053;BME280;57398;52.032;4.376;2023-08-24T18:46:30;101568.72;;;21.13;nan
70053;BME280;57398;52.032;4.376;2023-08-24T18:49:18;101565.34;;;21.08;nan
70053;BME280;57398;52.032;4.376;2023-08-24T18:52:07;101544.22;;;20.98;nan
70053;BME280;57398;52.032;4.376;2023-08-24T18:54:55;101518.69;;;20.83;nan
70053;BME280;57398;52.032;4.376;2023-08-24T18:57:44;101506.31;;;20.68;nan
70053;BME280;57398;52.032;4.376;2023-08-24T19:00:34;101471.25;;;20.62;nan
70053;BME280;57398;52.032;4.376;2023-08-24T19:03:23;101448.84;;;20.60;nan
70053;BME280;57398;52.032;4.376;2023-08-24T19:06:11;101427.72;;;20.49;nan
70053;BME280;57398;52.032;4.376;2023-08-24T19:09:10;101412.47;;;20.41;nan
70053;BME280;57398;52.032;4.376;2023-08-24T19:11:59;101372.09;;;20.36;nan
70053;BME280;57398;52.032;4.376;2023-08-24T19:14:47;101350.47;;;20.39;nan
70053;BME280;57398;52.032;4.376;2023-08-24T19:17:37;101334.63;;;20.34;nan
70053;BME280;57398;52.032;4.376;2023-08-24T19:20:25;101321.47;;;20.28;nan
70053;BME280;57398;52.032;4.376;2023-08-24T19:23:13;101337.06;;;20.25;nan
70053;BME280;57398;52.032;4.376;2023-08-24T19:26:01;101354.44;;;20.31;nan
70053;BME280;57398;52.032;4.376;2023-08-24T19:28:49;101353.91;;;20.29;nan
70053;BME280;57398;52.032;4.376;2023-08-24T19:31:38;101350.50;;;20.28;nan
70053;BME280;57398;52.032;4.376;2023-08-24T19:34:27;101368.50;;;20.16;nan
70053;BME280;57398;52.032;4.376;2023-08-24T19:37:16;101382.19;;;20.23;nan
70053;BME280;57398;52.032;4.376;2023-08-24T19:40:05;101407.00;;;20.12;nan
70053;BME280;57398;52.032;4.376;2023-08-24T19:42:53;101415.47;;;20.09;nan
70053;BME280;57398;52.032;4.376;2023-08-24T19:45:41;101448.13;;;20.13;nan
70053;BME280;57398;52.032;4.376;2023-08-24T19:48:29;101442.06;;;20.13;nan
70053;BME280;57398;52.032;4.376;2023-08-24T19:51:19;101494.81;;;20.13;nan
70053;BME280;57398;52.032;4.376;2023-08-24T19:54:08;101463.72;;;20.15;nan
70053;BME280;57398;52.032;4.376;2023-08-24T19:56:57;101467.66;;;20.12;nan
70053;BME280;57398;52.032;4.376;2023-08-24T19:59:45;101483.75;;;20.11;nan
70053;BME280;57398;52.032;4.376;2023-08-24T20:02:33;101490.34;;;20.08;nan
70053;BME280;57398;52.032;4.376;2023-08-24T20:05:22;101483.50;;;20.07;nan
70053;BME280;57398;52.032;4.376;2023-08-24T20:08:12;101481.13;;;20.05;nan
70053;BME280;57398;52.032;4.376;2023-08-24T20:11:00;101472.69;;;20.08;nan
70053;BME280;57398;52.032;4.376;2023-08-24T20:13:48;101477.94;;;20.08;nan
70053;BME280;57398;52.032;4.376;2023-08-24T20:16:37;101474.53;;;20.08;nan
70053;BME280;57398;52.032;4.376;2023-08-24T20:19:25;101459.78;;;20.07;nan
70053;BME280;57398;52.032;4.376;2023-08-24T20:22:13;101464.75;;;20.08;nan
70053;BME280;57398;52.032;4.376;2023-08-24T20:25:04;101474.50;;;20.13;nan
70053;BME280;57398;52.032;4.376;2023-08-24T20:27:52;101483.50;;;20.12;nan
70053;BME280;57398;52.032;4.376;2023-08-24T20:30:40;101473.50;;;20.09;nan
70053;BME280;57398;52.032;4.376;2023-08-24T20:33:29;101464.00;;;20.03;nan
70053;BME280;57398;52.032;4.376;2023-08-24T20:36:17;101470.06;;;20.03;nan
70053;BME280;57398;52.032;4.376;2023-08-24T20:39:05;101444.75;;;19.97;nan
70053;BME280;57398;52.032;4.376;2023-08-24T20:42:13;101434.47;;;19.96;nan
70053;BME280;57398;52.032;4.376;2023-08-24T20:45:02;101412.88;;;19.88;nan
70053;BME280;57398;52.032;4.376;2023-08-24T20:47:50;101409.94;;;19.90;nan
70053;BME280;57398;52.032;4.376;2023-08-24T20:50:39;101408.13;;;19.91;nan
70053;BME280;57398;52.032;4.376;2023-08-24T20:53:27;101397.56;;;19.91;nan
70053;BME280;57398;52.032;4.376;2023-08-24T20:56:15;101361.72;;;19.84;nan
70053;BME280;57398;52.032;4.376;2023-08-24T20:59:05;101344.56;;;19.87;nan
70053;BME280;57398;52.032;4.376;2023-08-24T21:01:53;101355.66;;;19.89;nan
70053;BME280;57398;52.032;4.376;2023-08-24T21:04:42;101404.66;;;19.90;nan
70053;BME280;57398;52.032;4.376;2023-08-24T21:07:31;101406.00;;;19.87;nan
70053;BME280;57398;52.032;4.376;2023-08-24T21:10:19;101419.44;;;19.81;nan
70053;BME280;57398;52.032;4.376;2023-08-24T21:13:07;101441.63;;;19.75;nan
70053;BME280;57398;52.032;4.376;2023-08-24T21:15:59;101455.84;;;19.69;nan
70053;BME280;57398;52.032;4.376;2023-08-24T21:18:47;101478.22;;;19.61;nan
70053;BME280;57398;52.032;4.376;2023-08-24T21:21:35;101486.13;;;19.61;nan
70053;BME280;57398;52.032;4.376;2023-08-24T21:24:24;101487.97;;;19.60;nan
70053;BME280;57398;52.032;4.376;2023-08-24T21:27:12;101494.53;;;19.63;nan
70053;BME280;57398;52.032;4.376;2023-08-24T21:30:00;101479.78;;;19.67;nan
70053;BME280;57398;52.032;4.376;2023-08-24T21:35:39;101462.41;;;19.61;nan
70053;BME280;57398;52.032;4.376;2023-08-24T21:41:15;101450.81;;;19.52;nan
70053;BME280;57398;52.032;4.376;2023-08-24T21:44:03;101466.63;;;19.52;nan
70053;BME280;57398;52.032;4.376;2023-08-24T21:46:52;101473.47;;;19.48;nan
70053;BME280;57398;52.032;4.376;2023-08-24T21:49:41;101482.69;;;19.45;nan
70053;BME280;57398;52.032;4.376;2023-08-24T21:52:29;101473.72;;;19.41;nan
70053;BME280;57398;52.032;4.376;2023-08-24T21:55:17;101481.88;;;19.39;nan
70053;BME280;57398;52.032;4.376;2023-08-24T21:58:06;101469.75;;;19.33;nan
70053;BME280;57398;52.032;4.376;2023-08-24T22:01:01;101478.44;;;19.29;nan
70053;BME280;57398;52.032;4.376;2023-08-24T22:03:50;101472.13;;;19.24;nan
70053;BME280;57398;52.032;4.376;2023-08-24T22:06:39;101472.38;;;19.23;nan
70053;BME280;57398;52.032;4.376;2023-08-24T22:09:27;101479.22;;;19.19;nan
70053;BME280;57398;52.032;4.376;2023-08-24T22:12:15;101468.69;;;19.19;nan
70053;BME280;57398;52.032;4.376;2023-08-24T22:15:04;101475.28;;;19.27;nan
70053;BME280;57398;52.032;4.376;2023-08-24T22:17:53;101483.44;;;19.35;nan
70053;BME280;57398;52.032;4.376;2023-08-24T22:23:31;101497.69;;;19.34;nan
70053;BME280;57398;52.032;4.376;2023-08-24T22:29:09;101507.44;;;19.34;nan
70053;BME280;57398;52.032;4.376;2023-08-24T22:31:58;101507.69;;;19.32;nan
70053;BME280;57398;52.032;4.376;2023-08-24T22:34:46;101505.59;;;19.29;nan
70053;BME280;57398;52.032;4.376;2023-08-24T22:37:34;101503.72;;;19.24;nan
70053;BME280;57398;52.032;4.376;2023-08-24T22:40:24;101500.56;;;19.22;nan
70053;BME280;57398;52.032;4.376;2023-08-24T22:43:12;101494.22;;;19.18;nan
70053;BME280;57398;52.032;4.376;2023-08-24T22:46:01;101485.00;;;19.16;nan
70053;BME280;57398;52.032;4.376;2023-08-24T22:48:50;101500.81;;;19.21;nan
70053;BME280;57398;52.032;4.376;2023-08-24T22:51:38;101480.53;;;19.21;nan
70053;BME280;57398;52.032;4.376;2023-08-24T22:54:26;101508.22;;;19.34;nan
70053;BME280;57398;52.032;4.376;2023-08-24T22:57:16;101495.06;;;19.34;nan
70053;BME280;57398;52.032;4.376;2023-08-24T23:00:05;101481.34;;;19.37;nan
70053;BME280;57398;52.032;4.376;2023-08-24T23:11:18;101485.53;;;19.23;nan
70053;BME280;57398;52.032;4.376;2023-08-24T23:14:08;101519.25;;;19.21;nan
70053;BME280;57398;52.032;4.376;2023-08-24T23:16:56;101510.03;;;19.18;nan
70053;BME280;57398;52.032;4.376;2023-08-24T23:19:44;101520.28;;;19.15;nan
70053;BME280;57398;52.032;4.376;2023-08-24T23:25:21;101541.34;;;19.10;nan
70053;BME280;57398;52.032;4.376;2023-08-24T23:30:59;101528.94;;;19.05;nan
70053;BME280;57398;52.032;4.376;2023-08-24T23:33:48;101533.66;;;19.03;nan
70053;BME280;57398;52.032;4.376;2023-08-24T23:36:36;101531.31;;;19.01;nan
70053;BME280;57398;52.032;4.376;2023-08-24T23:39:24;101522.59;;;19.01;nan
70053;BME280;57398;52.032;4.376;2023-08-24T23:56:15;101564.22;;;18.99;nan
